Flood From: 19-02-2018 16:00 Until: 20-02-2018 16:00 warning for: Flood Level: Yellow info button

Although rather usual in this region, locally or potentially dangerous phenomena are expected. (such as local winds, summer thunderstorms, rising streams or high waves) Be aware and pay attention to the latest weather updates, especially if you carry out activities exposed to weather or close to a stream or shoreline. 


Meteo18 Weather Cam more information Meteo18 Weather Cam


Thunder radar more information blitzortung!


Rain radar more information rain snow radar


Visit our other weather sites:

Template documentation
and downloads

And another site



Weather Underground History page Text

Daily Summary for February 3, 2018 Units:  Both    English   Metric
« Previous Day
Next Day »
Daily Weekly Monthly Yearly Custom
  High: Low: Average:
Temperature: TemperatureC °F /  -17.8 °C 0.8 °F /  -17.3 °C 2.7 °F /  -16.3 °C
Dew Point: DewpointC °F /  -17.8 °C 0.2 °F /  -17.7 °C 1.6 °F /  -16.9 °C
Humidity: Humidity % 85 % 93 %
Wind Speed: WindSpeedKMH mph /  0 km/h - 3.5 mph /  5.6 km/h
Wind Gust: WindSpeedGustKMH mph /  0 km/h - -
Wind:- - WSW
Pressure: PressurehPa in /  0 hPa 1006.3 in /  34073.3 hPa -
Precipitation: 0.5 in /  12.7 mm    
Historical Graphs
 
 
Tabular Data for February 3, 2018
Time Temperature Dew Point Pressure Wind Wind Speed Wind Gust Humidity Rainfall Rate (Hourly)
TemperatureC °F /  -17.8 °C DewpointC °F /  -17.8 °C PressurehPa in /  0 hPa Calm     Humidity % HourlyPrecipMM in /  0 mm
00:00 2.6 °F /  -16.3 °C 1.4 °F /  -17 °C 1011.7 in /  34256.2 hPa NW 6.4 mph /  10.3 km/h 8.0 mph /  12.9 km/h 92 % 0.0 in /  0 mm
00:06 2.5 °F /  -16.4 °C 1.3 °F /  -17.1 °C 1011.7 in /  34256.2 hPa WNW 4.7 mph /  7.6 km/h 9.7 mph /  15.6 km/h 92 % 0.0 in /  0 mm
00:12 2.4 °F /  -16.4 °C 1.2 °F /  -17.1 °C 1011.7 in /  34256.2 hPa WNW 4.7 mph /  7.6 km/h 9.7 mph /  15.6 km/h 92 % 0.0 in /  0 mm
00:19 2.3 °F /  -16.5 °C 1.1 °F /  -17.2 °C 1011.7 in /  34256.2 hPa WSW 3.2 mph /  5.1 km/h 6.4 mph /  10.3 km/h 92 % 0.0 in /  0 mm
00:25 2.2 °F /  -16.6 °C 1.2 °F /  -17.1 °C 1011.7 in /  34256.2 hPa West 3.2 mph /  5.1 km/h 8.0 mph /  12.9 km/h 93 % 0.0 in /  0 mm
00:31 2.1 °F /  -16.6 °C 1.1 °F /  -17.2 °C 1011.7 in /  34256.2 hPa WNW 7.9 mph /  12.7 km/h 9.7 mph /  15.6 km/h 93 % 0.0 in /  0 mm
00:37 1.9 °F /  -16.7 °C 0.9 °F /  -17.3 °C 1011.7 in /  34256.2 hPa WNW 4.7 mph /  7.6 km/h 8.0 mph /  12.9 km/h 93 % 0.0 in /  0 mm
00:43 1.9 °F /  -16.7 °C 0.9 °F /  -17.3 °C 1011.7 in /  34256.2 hPa WNW 1.4 mph /  2.3 km/h 9.7 mph /  15.6 km/h 93 % 0.0 in /  0 mm
00:49 1.8 °F /  -16.8 °C 0.8 °F /  -17.3 °C 1011.7 in /  34256.2 hPa WNW 4.7 mph /  7.6 km/h 8.0 mph /  12.9 km/h 93 % 0.0 in /  0 mm
00:55 1.8 °F /  -16.8 °C 0.8 °F /  -17.3 °C 1011.7 in /  34256.2 hPa WNW 4.7 mph /  7.6 km/h 6.4 mph /  10.3 km/h 93 % 0.0 in /  0 mm
01:01 1.7 °F /  -16.8 °C 0.8 °F /  -17.3 °C 1011.7 in /  34256.2 hPa WNW 7.9 mph /  12.7 km/h 9.7 mph /  15.6 km/h 94 % 0.0 in /  0 mm
01:07 1.7 °F /  -16.8 °C 0.8 °F /  -17.3 °C 1011.7 in /  34256.2 hPa WNW 3.2 mph /  5.1 km/h 9.7 mph /  15.6 km/h 94 % 0.0 in /  0 mm
01:13 1.6 °F /  -16.9 °C 0.7 °F /  -17.4 °C 1011.7 in /  34256.2 hPa WNW 3.2 mph /  5.1 km/h 11.3 mph /  18.2 km/h 94 % 0.0 in /  0 mm
01:19 1.7 °F /  -16.8 °C 0.8 °F /  -17.3 °C 1011.7 in /  34256.2 hPa WNW 9.7 mph /  15.6 km/h 11.3 mph /  18.2 km/h 94 % 0.0 in /  0 mm
01:25 1.7 °F /  -16.8 °C 0.8 °F /  -17.3 °C 1011.7 in /  34256.2 hPa WNW 7.9 mph /  12.7 km/h 11.3 mph /  18.2 km/h 94 % 0.0 in /  0 mm
01:31 1.7 °F /  -16.8 °C 0.8 °F /  -17.3 °C 1011.7 in /  34256.2 hPa WNW 6.4 mph /  10.3 km/h 9.7 mph /  15.6 km/h 94 % 0.0 in /  0 mm
01:37 1.6 °F /  -16.9 °C 0.7 °F /  -17.4 °C 1011.7 in /  34256.2 hPa WNW 6.4 mph /  10.3 km/h 6.4 mph /  10.3 km/h 94 % 0.0 in /  0 mm
01:43 1.5 °F /  -16.9 °C 0.6 °F /  -17.4 °C 1011.7 in /  34256.2 hPa NW 4.7 mph /  7.6 km/h 8.0 mph /  12.9 km/h 94 % 0.0 in /  0 mm
01:49 1.4 °F /  -17 °C 0.5 °F /  -17.5 °C 1011.7 in /  34256.2 hPa NW 4.7 mph /  7.6 km/h 8.0 mph /  12.9 km/h 94 % 0.0 in /  0 mm
01:55 1.5 °F /  -16.9 °C 0.6 °F /  -17.4 °C 1011.7 in /  34256.2 hPa WNW 1.4 mph /  2.3 km/h 9.7 mph /  15.6 km/h 94 % 0.0 in /  0 mm
02:01 1.4 °F /  -17 °C 0.5 °F /  -17.5 °C 1011.7 in /  34256.2 hPa West 1.4 mph /  2.3 km/h 8.0 mph /  12.9 km/h 94 % 0.0 in /  0 mm
02:07 1.4 °F /  -17 °C 0.5 °F /  -17.5 °C 1011.7 in /  34256.2 hPa NW 3.2 mph /  5.1 km/h 6.4 mph /  10.3 km/h 94 % 0.0 in /  0 mm
02:13 1.6 °F /  -16.9 °C 0.7 °F /  -17.4 °C 1011.7 in /  34256.2 hPa West 4.7 mph /  7.6 km/h 8.0 mph /  12.9 km/h 94 % 0.0 in /  0 mm
02:19 1.6 °F /  -16.9 °C 0.7 °F /  -17.4 °C 1011.7 in /  34256.2 hPa WNW 1.4 mph /  2.3 km/h 4.8 mph /  7.7 km/h 94 % 0.0 in /  0 mm
02:25 1.6 °F /  -16.9 °C 0.7 °F /  -17.4 °C 1011.7 in /  34256.2 hPa WNW 3.2 mph /  5.1 km/h 4.8 mph /  7.7 km/h 94 % 0.0 in /  0 mm
02:31 1.7 °F /  -16.8 °C 0.8 °F /  -17.3 °C 1011.7 in /  34256.2 hPa NW 1.4 mph /  2.3 km/h 9.7 mph /  15.6 km/h 94 % 0.0 in /  0 mm
02:37 1.7 °F /  -16.8 °C 0.8 °F /  -17.3 °C 1011.7 in /  34256.2 hPa NW 6.4 mph /  10.3 km/h 8.0 mph /  12.9 km/h 94 % 0.0 in /  0 mm
02:43 1.8 °F /  -16.8 °C 0.9 °F /  -17.3 °C 1011.7 in /  34256.2 hPa NW 4.7 mph /  7.6 km/h 6.4 mph /  10.3 km/h 94 % 0.0 in /  0 mm
02:49 1.9 °F /  -16.7 °C 1.0 °F /  -17.2 °C 1011.7 in /  34256.2 hPa WNW 1.4 mph /  2.3 km/h 6.4 mph /  10.3 km/h 94 % 0.0 in /  0 mm
02:55 1.9 °F /  -16.7 °C 1.0 °F /  -17.2 °C 1011.7 in /  34256.2 hPa WNW 3.2 mph /  5.1 km/h 8.0 mph /  12.9 km/h 94 % 0.0 in /  0 mm
03:01 2.0 °F /  -16.7 °C 1.1 °F /  -17.2 °C 1011.7 in /  34256.2 hPa WNW 9.7 mph /  15.6 km/h 11.3 mph /  18.2 km/h 94 % 0.0 in /  0 mm
03:07 2.1 °F /  -16.6 °C 1.2 °F /  -17.1 °C 1011.7 in /  34256.2 hPa West 3.2 mph /  5.1 km/h 9.7 mph /  15.6 km/h 94 % 0.0 in /  0 mm
03:13 2.1 °F /  -16.6 °C 1.2 °F /  -17.1 °C 1011.7 in /  34256.2 hPa WNW 3.2 mph /  5.1 km/h 4.8 mph /  7.7 km/h 94 % 0.0 in /  0 mm
03:19 2.1 °F /  -16.6 °C 1.2 °F /  -17.1 °C 1011.7 in /  34256.2 hPa WNW 7.9 mph /  12.7 km/h 8.0 mph /  12.9 km/h 94 % 0.0 in /  0 mm
03:25 2.2 °F /  -16.6 °C 1.3 °F /  -17.1 °C 1011.4 in /  34246 hPa WNW 3.2 mph /  5.1 km/h 9.7 mph /  15.6 km/h 94 % 0.0 in /  0 mm
03:31 2.2 °F /  -16.6 °C 1.3 °F /  -17.1 °C 1011.4 in /  34246 hPa West 1.4 mph /  2.3 km/h 6.4 mph /  10.3 km/h 94 % 0.0 in /  0 mm
03:37 2.2 °F /  -16.6 °C 1.3 °F /  -17.1 °C 1011.4 in /  34246 hPa West 4.7 mph /  7.6 km/h 8.0 mph /  12.9 km/h 94 % 0.0 in /  0 mm
03:43 2.2 °F /  -16.6 °C 1.3 °F /  -17.1 °C 1011.4 in /  34246 hPa NW 3.2 mph /  5.1 km/h 9.7 mph /  15.6 km/h 94 % 0.0 in /  0 mm
03:49 2.2 °F /  -16.6 °C 1.3 °F /  -17.1 °C 1011.4 in /  34246 hPa WNW 4.7 mph /  7.6 km/h 9.7 mph /  15.6 km/h 94 % 0.0 in /  0 mm
03:55 2.3 °F /  -16.5 °C 1.3 °F /  -17.1 °C 1011.4 in /  34246 hPa WNW 1.4 mph /  2.3 km/h 9.7 mph /  15.6 km/h 93 % 0.0 in /  0 mm
04:01 2.3 °F /  -16.5 °C 1.3 °F /  -17.1 °C 1011.4 in /  34246 hPa NNW 1.4 mph /  2.3 km/h 3.2 mph /  5.1 km/h 93 % 0.0 in /  0 mm
04:07 2.3 °F /  -16.5 °C 1.3 °F /  -17.1 °C 1011.4 in /  34246 hPa Calm   4.8 mph /  7.7 km/h 93 % 0.0 in /  0 mm
04:13 2.2 °F /  -16.6 °C 1.2 °F /  -17.1 °C 1011.4 in /  34246 hPa Calm   1.6 mph /  2.6 km/h 93 % 0.0 in /  0 mm
04:19 2.2 °F /  -16.6 °C 1.2 °F /  -17.1 °C 1011.4 in /  34246 hPa NNW 1.4 mph /  2.3 km/h 6.4 mph /  10.3 km/h 93 % 0.0 in /  0 mm
04:25 2.3 °F /  -16.5 °C 1.3 °F /  -17.1 °C 1011.4 in /  34246 hPa WNW 4.7 mph /  7.6 km/h 8.0 mph /  12.9 km/h 93 % 0.0 in /  0 mm
04:31 2.3 °F /  -16.5 °C 1.3 °F /  -17.1 °C 1011.1 in /  34235.8 hPa WNW 4.7 mph /  7.6 km/h 14.5 mph /  23.3 km/h 93 % 0.0 in /  0 mm
04:37 2.2 °F /  -16.6 °C 1.0 °F /  -17.2 °C 1011.1 in /  34235.8 hPa NW 6.4 mph /  10.3 km/h 9.7 mph /  15.6 km/h 92 % 0.0 in /  0 mm
04:43 2.2 °F /  -16.6 °C 1.0 °F /  -17.2 °C 1011.1 in /  34235.8 hPa NW 4.7 mph /  7.6 km/h 9.7 mph /  15.6 km/h 92 % 0.0 in /  0 mm
04:49 2.1 °F /  -16.6 °C 1.1 °F /  -17.2 °C 1011.1 in /  34235.8 hPa NW 4.7 mph /  7.6 km/h 9.7 mph /  15.6 km/h 93 % 0.0 in /  0 mm
04:55 2.1 °F /  -16.6 °C 1.1 °F /  -17.2 °C 1011.1 in /  34235.8 hPa WNW 4.7 mph /  7.6 km/h 8.0 mph /  12.9 km/h 93 % 0.0 in /  0 mm
05:01 2.0 °F /  -16.7 °C 1.0 °F /  -17.2 °C 1011.1 in /  34235.8 hPa WNW 3.2 mph /  5.1 km/h 6.4 mph /  10.3 km/h 93 % 0.0 in /  0 mm
05:07 2.0 °F /  -16.7 °C 1.0 °F /  -17.2 °C 1011.1 in /  34235.8 hPa NW 1.4 mph /  2.3 km/h 8.0 mph /  12.9 km/h 93 % 0.0 in /  0 mm
05:13 2.1 °F /  -16.6 °C 1.1 °F /  -17.2 °C 1011.1 in /  34235.8 hPa NNE 1.4 mph /  2.3 km/h 12.9 mph /  20.8 km/h 93 % 0.0 in /  0 mm
05:19 2.1 °F /  -16.6 °C 1.1 °F /  -17.2 °C 1010.7 in /  34222.3 hPa WNW 4.7 mph /  7.6 km/h 8.0 mph /  12.9 km/h 93 % 0.0 in /  0 mm
05:25 2.0 °F /  -16.7 °C 1.0 °F /  -17.2 °C 1010.7 in /  34222.3 hPa Calm   6.4 mph /  10.3 km/h 93 % 0.0 in /  0 mm
05:31 2.0 °F /  -16.7 °C 1.0 °F /  -17.2 °C 1010.7 in /  34222.3 hPa NNW 7.9 mph /  12.7 km/h 9.7 mph /  15.6 km/h 93 % 0.0 in /  0 mm
05:37 2.0 °F /  -16.7 °C 1.0 °F /  -17.2 °C 1010.7 in /  34222.3 hPa North 1.4 mph /  2.3 km/h 4.8 mph /  7.7 km/h 93 % 0.0 in /  0 mm
05:43 1.9 °F /  -16.7 °C 0.9 °F /  -17.3 °C 1010.7 in /  34222.3 hPa North 1.4 mph /  2.3 km/h 4.8 mph /  7.7 km/h 93 % 0.0 in /  0 mm
05:49 1.9 °F /  -16.7 °C 0.9 °F /  -17.3 °C 1010.7 in /  34222.3 hPa NNW 1.4 mph /  2.3 km/h 1.6 mph /  2.6 km/h 93 % 0.0 in /  0 mm
05:55 1.9 °F /  -16.7 °C 0.9 °F /  -17.3 °C 1010.7 in /  34222.3 hPa North 1.4 mph /  2.3 km/h 1.6 mph /  2.6 km/h 93 % 0.0 in /  0 mm
06:01 1.8 °F /  -16.8 °C 0.8 °F /  -17.3 °C 1010.7 in /  34222.3 hPa North 3.2 mph /  5.1 km/h 3.2 mph /  5.1 km/h 93 % 0.0 in /  0 mm
06:07 1.8 °F /  -16.8 °C 0.9 °F /  -17.3 °C 1010.7 in /  34222.3 hPa Calm   4.8 mph /  7.7 km/h 94 % 0.0 in /  0 mm
06:13 1.8 °F /  -16.8 °C 0.9 °F /  -17.3 °C 1010.7 in /  34222.3 hPa NW 1.4 mph /  2.3 km/h 4.8 mph /  7.7 km/h 94 % 0.0 in /  0 mm
06:19 1.8 °F /  -16.8 °C 0.8 °F /  -17.3 °C 1010.7 in /  34222.3 hPa NNW 3.2 mph /  5.1 km/h 4.8 mph /  7.7 km/h 93 % 0.0 in /  0 mm
06:25 1.7 °F /  -16.8 °C 0.7 °F /  -17.4 °C 1010.7 in /  34222.3 hPa NNW 1.4 mph /  2.3 km/h 4.8 mph /  7.7 km/h 93 % 0.0 in /  0 mm
06:31 1.7 °F /  -16.8 °C 0.7 °F /  -17.4 °C 1010.7 in /  34222.3 hPa NW 3.2 mph /  5.1 km/h 4.8 mph /  7.7 km/h 93 % 0.0 in /  0 mm
06:37 1.7 °F /  -16.8 °C 0.8 °F /  -17.3 °C 1010.7 in /  34222.3 hPa WNW 1.4 mph /  2.3 km/h 6.4 mph /  10.3 km/h 94 % 0.0 in /  0 mm
06:43 1.7 °F /  -16.8 °C 0.8 °F /  -17.3 °C 1010.7 in /  34222.3 hPa Calm   3.2 mph /  5.1 km/h 94 % 0.0 in /  0 mm
06:49 1.7 °F /  -16.8 °C 0.8 °F /  -17.3 °C 1010.7 in /  34222.3 hPa Calm   3.2 mph /  5.1 km/h 94 % 0.0 in /  0 mm
06:55 1.7 °F /  -16.8 °C 0.8 °F /  -17.3 °C 1010.7 in /  34222.3 hPa WNW 1.4 mph /  2.3 km/h 3.2 mph /  5.1 km/h 94 % 0.0 in /  0 mm
07:01 1.7 °F /  -16.8 °C 0.8 °F /  -17.3 °C 1010.7 in /  34222.3 hPa Calm   1.6 mph /  2.6 km/h 94 % 0.0 in /  0 mm
07:07 1.7 °F /  -16.8 °C 0.7 °F /  -17.4 °C 1010.7 in /  34222.3 hPa Calm     93 % 0.0 in /  0 mm
07:14 1.6 °F /  -16.9 °C 0.7 °F /  -17.4 °C 1010.7 in /  34222.3 hPa Calm     94 % 0.0 in /  0 mm
07:20 1.6 °F /  -16.9 °C 0.7 °F /  -17.4 °C 1010.7 in /  34222.3 hPa Calm     94 % 0.0 in /  0 mm
07:26 1.5 °F /  -16.9 °C 0.6 °F /  -17.4 °C 1010.7 in /  34222.3 hPa Calm     94 % 0.0 in /  0 mm
07:32 1.4 °F /  -17 °C 0.5 °F /  -17.5 °C 1010.7 in /  34222.3 hPa Calm     94 % 0.0 in /  0 mm
07:38 1.3 °F /  -17.1 °C 0.4 °F /  -17.6 °C 1010.7 in /  34222.3 hPa Calm     94 % 0.0 in /  0 mm
07:44 1.2 °F /  -17.1 °C 0.3 °F /  -17.6 °C 1010.7 in /  34222.3 hPa Calm     94 % 0.0 in /  0 mm
07:50 1.2 °F /  -17.1 °C 0.3 °F /  -17.6 °C 1010.7 in /  34222.3 hPa Calm   1.6 mph /  2.6 km/h 94 % 0.0 in /  0 mm
07:56 1.2 °F /  -17.1 °C 0.5 °F /  -17.5 °C 1010.7 in /  34222.3 hPa Calm   1.6 mph /  2.6 km/h 95 % 0.0 in /  0 mm
08:02 1.1 °F /  -17.2 °C 0.2 °F /  -17.7 °C 1010.7 in /  34222.3 hPa Calm     94 % 0.0 in /  0 mm
08:08 1.1 °F /  -17.2 °C 0.4 °F /  -17.6 °C 1010.7 in /  34222.3 hPa Calm     95 % 0.0 in /  0 mm
08:14 1.0 °F /  -17.2 °C 0.3 °F /  -17.6 °C 1010.7 in /  34222.3 hPa Calm   1.6 mph /  2.6 km/h 95 % 0.0 in /  0 mm
08:20 0.9 °F /  -17.3 °C 0.2 °F /  -17.7 °C 1011.1 in /  34235.8 hPa Calm   1.6 mph /  2.6 km/h 95 % 0.0 in /  0 mm
08:26 0.9 °F /  -17.3 °C 0.2 °F /  -17.7 °C 1011.1 in /  34235.8 hPa SSW 1.4 mph /  2.3 km/h 3.2 mph /  5.1 km/h 95 % 0.0 in /  0 mm
08:32 0.8 °F /  -17.3 °C 0.2 °F /  -17.7 °C 1011.1 in /  34235.8 hPa SW 3.2 mph /  5.1 km/h 6.4 mph /  10.3 km/h 96 % 0.0 in /  0 mm
08:38 0.9 °F /  -17.3 °C 0.3 °F /  -17.6 °C 1011.1 in /  34235.8 hPa West 4.7 mph /  7.6 km/h 8.0 mph /  12.9 km/h 96 % 0.0 in /  0 mm
08:44 0.9 °F /  -17.3 °C 0.3 °F /  -17.6 °C 1011.1 in /  34235.8 hPa WSW 7.9 mph /  12.7 km/h 9.7 mph /  15.6 km/h 96 % 0.0 in /  0 mm
08:50 0.9 °F /  -17.3 °C 0.3 °F /  -17.6 °C 1011.1 in /  34235.8 hPa WSW 4.7 mph /  7.6 km/h 8.0 mph /  12.9 km/h 96 % 0.0 in /  0 mm
08:56 0.9 °F /  -17.3 °C 0.3 °F /  -17.6 °C 1011.1 in /  34235.8 hPa West 3.2 mph /  5.1 km/h 6.4 mph /  10.3 km/h 96 % 0.0 in /  0 mm
09:02 1.1 °F /  -17.2 °C 0.5 °F /  -17.5 °C 1011.1 in /  34235.8 hPa Calm   8.0 mph /  12.9 km/h 96 % 0.0 in /  0 mm
09:08 1.1 °F /  -17.2 °C 0.4 °F /  -17.6 °C 1010.7 in /  34222.3 hPa Calm   1.6 mph /  2.6 km/h 95 % 0.0 in /  0 mm
09:14 1.1 °F /  -17.2 °C 0.4 °F /  -17.6 °C 1010.7 in /  34222.3 hPa Calm     95 % 0.0 in /  0 mm
09:20 1.1 °F /  -17.2 °C 0.4 °F /  -17.6 °C 1011.1 in /  34235.8 hPa Calm   3.2 mph /  5.1 km/h 95 % 0.0 in /  0 mm
09:26 1.1 °F /  -17.2 °C 0.4 °F /  -17.6 °C 1010.7 in /  34222.3 hPa WSW 1.4 mph /  2.3 km/h 3.2 mph /  5.1 km/h 95 % 0.0 in /  0 mm
09:32 1.2 °F /  -17.1 °C 0.5 °F /  -17.5 °C 1010.7 in /  34222.3 hPa WSW 3.2 mph /  5.1 km/h 3.2 mph /  5.1 km/h 95 % 0.0 in /  0 mm
09:38 1.2 °F /  -17.1 °C 0.5 °F /  -17.5 °C 1010.7 in /  34222.3 hPa West 1.4 mph /  2.3 km/h 1.6 mph /  2.6 km/h 95 % 0.0 in /  0 mm
09:44 1.2 °F /  -17.1 °C 0.5 °F /  -17.5 °C 1010.7 in /  34222.3 hPa SW 1.4 mph /  2.3 km/h 1.6 mph /  2.6 km/h 95 % 0.0 in /  0 mm
09:50 1.3 °F /  -17.1 °C 0.6 °F /  -17.4 °C 1010.7 in /  34222.3 hPa SW 4.7 mph /  7.6 km/h 6.4 mph /  10.3 km/h 95 % 0.0 in /  0 mm
09:56 1.3 °F /  -17.1 °C 0.6 °F /  -17.4 °C 1010.7 in /  34222.3 hPa SW 1.4 mph /  2.3 km/h 4.8 mph /  7.7 km/h 95 % 0.0 in /  0 mm
10:02 1.4 °F /  -17 °C 0.7 °F /  -17.4 °C 1010.7 in /  34222.3 hPa WSW 3.2 mph /  5.1 km/h 4.8 mph /  7.7 km/h 95 % 0.0 in /  0 mm
10:08 1.6 °F /  -16.9 °C 0.9 °F /  -17.3 °C 1010.7 in /  34222.3 hPa WSW 1.4 mph /  2.3 km/h 3.2 mph /  5.1 km/h 95 % 0.0 in /  0 mm
10:14 1.7 °F /  -16.8 °C 1.0 °F /  -17.2 °C 1010.7 in /  34222.3 hPa West 3.2 mph /  5.1 km/h 4.8 mph /  7.7 km/h 95 % 0.0 in /  0 mm
10:20 1.8 °F /  -16.8 °C 1.1 °F /  -17.2 °C 1010.7 in /  34222.3 hPa West 3.2 mph /  5.1 km/h 6.4 mph /  10.3 km/h 95 % 0.0 in /  0 mm
10:26 2.1 °F /  -16.6 °C 1.4 °F /  -17 °C 1010.7 in /  34222.3 hPa WSW 6.4 mph /  10.3 km/h 8.0 mph /  12.9 km/h 95 % 0.0 in /  0 mm
10:32 2.2 °F /  -16.6 °C 1.3 °F /  -17.1 °C 1010.7 in /  34222.3 hPa SW 3.2 mph /  5.1 km/h 4.8 mph /  7.7 km/h 94 % 0.0 in /  0 mm
10:38 2.3 °F /  -16.5 °C 1.4 °F /  -17 °C 1010.7 in /  34222.3 hPa WNW 1.4 mph /  2.3 km/h 3.2 mph /  5.1 km/h 94 % 0.0 in /  0 mm
10:44 2.4 °F /  -16.4 °C 1.4 °F /  -17 °C 1010.7 in /  34222.3 hPa SW 4.7 mph /  7.6 km/h 4.8 mph /  7.7 km/h 93 % 0.0 in /  0 mm
10:50 2.4 °F /  -16.4 °C 1.4 °F /  -17 °C 1010.7 in /  34222.3 hPa WSW 1.4 mph /  2.3 km/h 4.8 mph /  7.7 km/h 93 % 0.0 in /  0 mm
10:56 2.4 °F /  -16.4 °C 1.4 °F /  -17 °C 1010.7 in /  34222.3 hPa SW 3.2 mph /  5.1 km/h 6.4 mph /  10.3 km/h 93 % 0.0 in /  0 mm
11:02 2.5 °F /  -16.4 °C 1.5 °F /  -16.9 °C 1010.7 in /  34222.3 hPa SW 1.4 mph /  2.3 km/h 4.8 mph /  7.7 km/h 93 % 0.0 in /  0 mm
11:08 2.6 °F /  -16.3 °C 1.7 °F /  -16.8 °C 1010.4 in /  34212.1 hPa SW 4.7 mph /  7.6 km/h 6.4 mph /  10.3 km/h 94 % 0.0 in /  0 mm
11:14 2.7 °F /  -16.3 °C 1.7 °F /  -16.8 °C 1010.4 in /  34212.1 hPa SW 3.2 mph /  5.1 km/h 4.8 mph /  7.7 km/h 93 % 0.0 in /  0 mm
11:20 2.8 °F /  -16.2 °C 1.8 °F /  -16.8 °C 1010.4 in /  34212.1 hPa SSW 6.4 mph /  10.3 km/h 9.7 mph /  15.6 km/h 93 % 0.0 in /  0 mm
11:26 2.7 °F /  -16.3 °C 1.7 °F /  -16.8 °C 1010.4 in /  34212.1 hPa SW 4.7 mph /  7.6 km/h 8.0 mph /  12.9 km/h 93 % 0.0 in /  0 mm
11:32 2.8 °F /  -16.2 °C 1.9 °F /  -16.7 °C 1010.4 in /  34212.1 hPa SW 4.7 mph /  7.6 km/h 6.4 mph /  10.3 km/h 94 % 0.0 in /  0 mm
11:38 2.9 °F /  -16.2 °C 1.9 °F /  -16.7 °C 1010.4 in /  34212.1 hPa SSW 7.9 mph /  12.7 km/h 11.3 mph /  18.2 km/h 93 % 0.0 in /  0 mm
11:45 3.0 °F /  -16.1 °C 1.8 °F /  -16.8 °C 1010.0 in /  34198.6 hPa SW 4.7 mph /  7.6 km/h 9.7 mph /  15.6 km/h 92 % 0.0 in /  0 mm
11:50 3.0 °F /  -16.1 °C 1.8 °F /  -16.8 °C 1010.0 in /  34198.6 hPa SSW 6.4 mph /  10.3 km/h 9.7 mph /  15.6 km/h 92 % 0.0 in /  0 mm
11:57 3.1 °F /  -16.1 °C 1.9 °F /  -16.7 °C 1010.0 in /  34198.6 hPa SSW 4.7 mph /  7.6 km/h 8.0 mph /  12.9 km/h 92 % 0.0 in /  0 mm
12:02 3.1 °F /  -16.1 °C 2.1 °F /  -16.6 °C 1010.0 in /  34198.6 hPa SW 11.1 mph /  17.9 km/h 11.3 mph /  18.2 km/h 93 % 0.0 in /  0 mm
12:09 3.3 °F /  -15.9 °C 2.1 °F /  -16.6 °C 1010.0 in /  34198.6 hPa SSW 7.9 mph /  12.7 km/h 12.9 mph /  20.8 km/h 92 % 0.0 in /  0 mm
12:15 3.3 °F /  -15.9 °C 2.1 °F /  -16.6 °C 1010.0 in /  34198.6 hPa SSW 11.1 mph /  17.9 km/h 14.5 mph /  23.3 km/h 92 % 0.0 in /  0 mm
12:21 3.3 °F /  -15.9 °C 2.1 °F /  -16.6 °C 1010.0 in /  34198.6 hPa SSW 7.9 mph /  12.7 km/h 14.5 mph /  23.3 km/h 92 % 0.0 in /  0 mm
12:27 3.2 °F /  -16 °C 2.0 °F /  -16.7 °C 1010.0 in /  34198.6 hPa SW 11.1 mph /  17.9 km/h 14.5 mph /  23.3 km/h 92 % 0.0 in /  0 mm
12:33 3.2 °F /  -16 °C 2.0 °F /  -16.7 °C 1009.7 in /  34188.4 hPa South 7.9 mph /  12.7 km/h 12.9 mph /  20.8 km/h 92 % 0.0 in /  0 mm
12:39 3.2 °F /  -16 °C 1.9 °F /  -16.7 °C 1009.7 in /  34188.4 hPa SSW 9.7 mph /  15.6 km/h 12.9 mph /  20.8 km/h 91 % 0.0 in /  0 mm
12:45 3.3 °F /  -15.9 °C 2.1 °F /  -16.6 °C 1009.7 in /  34188.4 hPa SSW 4.7 mph /  7.6 km/h 9.7 mph /  15.6 km/h 92 % 0.0 in /  0 mm
12:51 3.4 °F /  -15.9 °C 2.2 °F /  -16.6 °C 1009.7 in /  34188.4 hPa SW 13.0 mph /  20.9 km/h 14.5 mph /  23.3 km/h 92 % 0.0 in /  0 mm
12:57 3.4 °F /  -15.9 °C 2.1 °F /  -16.6 °C 1009.7 in /  34188.4 hPa SSW 9.7 mph /  15.6 km/h 14.5 mph /  23.3 km/h 91 % 0.0 in /  0 mm
13:03 3.4 °F /  -15.9 °C 2.1 °F /  -16.6 °C 1009.7 in /  34188.4 hPa SW 7.9 mph /  12.7 km/h 12.9 mph /  20.8 km/h 91 % 0.0 in /  0 mm
13:09 3.4 °F /  -15.9 °C 2.1 °F /  -16.6 °C 1009.4 in /  34178.3 hPa SW 9.7 mph /  15.6 km/h 14.5 mph /  23.3 km/h 91 % 0.0 in /  0 mm
13:15 3.6 °F /  -15.8 °C 2.3 °F /  -16.5 °C 1009.4 in /  34178.3 hPa SW 11.1 mph /  17.9 km/h 16.1 mph /  25.9 km/h 91 % 0.0 in /  0 mm
13:21 3.6 °F /  -15.8 °C 2.3 °F /  -16.5 °C 1009.4 in /  34178.3 hPa SW 7.9 mph /  12.7 km/h 12.9 mph /  20.8 km/h 91 % 0.0 in /  0 mm
13:27 3.6 °F /  -15.8 °C 2.1 °F /  -16.6 °C 1009.0 in /  34164.7 hPa SW 7.9 mph /  12.7 km/h 11.3 mph /  18.2 km/h 90 % 0.0 in /  0 mm
13:33 3.6 °F /  -15.8 °C 2.1 °F /  -16.6 °C 1009.0 in /  34164.7 hPa SW 13.0 mph /  20.9 km/h 14.5 mph /  23.3 km/h 90 % 0.0 in /  0 mm
13:39 3.6 °F /  -15.8 °C 2.3 °F /  -16.5 °C 1009.0 in /  34164.7 hPa WSW 3.2 mph /  5.1 km/h 8.0 mph /  12.9 km/h 91 % 0.0 in /  0 mm
13:45 3.6 °F /  -15.8 °C 2.3 °F /  -16.5 °C 1009.0 in /  34164.7 hPa WSW 9.7 mph /  15.6 km/h 11.3 mph /  18.2 km/h 91 % 0.0 in /  0 mm
13:51 3.6 °F /  -15.8 °C 2.3 °F /  -16.5 °C 1009.0 in /  34164.7 hPa SW 6.4 mph /  10.3 km/h 11.3 mph /  18.2 km/h 91 % 0.0 in /  0 mm
13:57 3.7 °F /  -15.7 °C 2.4 °F /  -16.4 °C 1009.0 in /  34164.7 hPa South 6.4 mph /  10.3 km/h 8.0 mph /  12.9 km/h 91 % 0.0 in /  0 mm
14:03 3.7 °F /  -15.7 °C 2.4 °F /  -16.4 °C 1008.7 in /  34154.6 hPa SSW 4.7 mph /  7.6 km/h 9.7 mph /  15.6 km/h 91 % 0.0 in /  0 mm
14:09 3.8 °F /  -15.7 °C 2.5 °F /  -16.4 °C 1008.7 in /  34154.6 hPa SSW 6.4 mph /  10.3 km/h 8.0 mph /  12.9 km/h 91 % 0.0 in /  0 mm
14:15 3.8 °F /  -15.7 °C 2.5 °F /  -16.4 °C 1008.4 in /  34144.4 hPa SW 6.4 mph /  10.3 km/h 12.9 mph /  20.8 km/h 91 % 0.0 in /  0 mm
14:21 3.9 °F /  -15.6 °C 2.4 °F /  -16.4 °C 1008.4 in /  34144.4 hPa SW 6.4 mph /  10.3 km/h 11.3 mph /  18.2 km/h 90 % 0.0 in /  0 mm
14:27 4.0 °F /  -15.6 °C 2.4 °F /  -16.4 °C 1008.4 in /  34144.4 hPa SW 6.4 mph /  10.3 km/h 12.9 mph /  20.8 km/h 89 % 0.0 in /  0 mm
14:33 4.1 °F /  -15.5 °C 2.5 °F /  -16.4 °C 1008.0 in /  34130.9 hPa South 7.9 mph /  12.7 km/h 12.9 mph /  20.8 km/h 89 % 0.0 in /  0 mm
14:39 4.1 °F /  -15.5 °C 2.5 °F /  -16.4 °C 1008.0 in /  34130.9 hPa SW 9.7 mph /  15.6 km/h 11.3 mph /  18.2 km/h 89 % 0.0 in /  0 mm
14:45 4.2 °F /  -15.4 °C 2.7 °F /  -16.3 °C 1008.0 in /  34130.9 hPa SSW 6.4 mph /  10.3 km/h 16.1 mph /  25.9 km/h 90 % 0.0 in /  0 mm
14:51 4.3 °F /  -15.4 °C 2.5 °F /  -16.4 °C 1007.7 in /  34120.7 hPa SW 4.7 mph /  7.6 km/h 14.5 mph /  23.3 km/h 88 % 0.0 in /  0 mm
14:57 4.4 °F /  -15.3 °C 2.4 °F /  -16.4 °C 1007.7 in /  34120.7 hPa SSW 4.7 mph /  7.6 km/h 11.3 mph /  18.2 km/h 87 % 0.0 in /  0 mm
15:03 4.4 °F /  -15.3 °C 2.1 °F /  -16.6 °C 1007.7 in /  34120.7 hPa SW 7.9 mph /  12.7 km/h 17.7 mph /  28.5 km/h 85 % 0.0 in /  0 mm
15:09 4.3 °F /  -15.4 °C 2.0 °F /  -16.7 °C 1007.3 in /  34107.2 hPa SW 9.7 mph /  15.6 km/h 17.7 mph /  28.5 km/h 85 % 0.0 in /  0 mm
15:15 4.1 °F /  -15.5 °C 2.1 °F /  -16.6 °C 1007.3 in /  34107.2 hPa WSW 11.1 mph /  17.9 km/h 14.5 mph /  23.3 km/h 87 % 0.0 in /  0 mm
15:21 3.9 °F /  -15.6 °C 2.1 °F /  -16.6 °C 1007.3 in /  34107.2 hPa WSW 4.7 mph /  7.6 km/h 11.3 mph /  18.2 km/h 88 % 0.0 in /  0 mm
15:27 3.9 °F /  -15.6 °C 2.3 °F /  -16.5 °C 1007.3 in /  34107.2 hPa SW 7.9 mph /  12.7 km/h 9.7 mph /  15.6 km/h 89 % 0.0 in /  0 mm
15:33 3.9 °F /  -15.6 °C 2.3 °F /  -16.5 °C 1007.3 in /  34107.2 hPa SW 6.4 mph /  10.3 km/h 12.9 mph /  20.8 km/h 89 % 0.0 in /  0 mm
15:39 4.0 °F /  -15.6 °C 2.0 °F /  -16.7 °C 1007.3 in /  34107.2 hPa SW 11.1 mph /  17.9 km/h 14.5 mph /  23.3 km/h 87 % 0.0 in /  0 mm
15:45 4.0 °F /  -15.6 °C 1.9 °F /  -16.7 °C 1007.3 in /  34107.2 hPa SW 17.7 mph /  28.5 km/h 19.3 mph /  31.1 km/h 86 % 0.0 in /  0 mm
15:51 4.0 °F /  -15.6 °C 2.0 °F /  -16.7 °C 1007.3 in /  34107.2 hPa SW 7.9 mph /  12.7 km/h 12.9 mph /  20.8 km/h 87 % 0.0 in /  0 mm
15:57 4.0 °F /  -15.6 °C 2.2 °F /  -16.6 °C 1007.3 in /  34107.2 hPa West 9.7 mph /  15.6 km/h 9.7 mph /  15.6 km/h 88 % 0.0 in /  0 mm
16:03 4.1 °F /  -15.5 °C 2.3 °F /  -16.5 °C 1007.3 in /  34107.2 hPa West 13.0 mph /  20.9 km/h 19.3 mph /  31.1 km/h 88 % 0.0 in /  0 mm
16:09 3.9 °F /  -15.6 °C 2.1 °F /  -16.6 °C 1007.3 in /  34107.2 hPa SW 7.9 mph /  12.7 km/h 14.5 mph /  23.3 km/h 88 % 0.0 in /  0 mm
16:15 3.8 °F /  -15.7 °C 2.2 °F /  -16.6 °C 1007.3 in /  34107.2 hPa SW 7.9 mph /  12.7 km/h 16.1 mph /  25.9 km/h 89 % 0.3 in /  7.62 mm
16:21 3.6 °F /  -15.8 °C 2.1 °F /  -16.6 °C 1007.0 in /  34097 hPa SW 13.0 mph /  20.9 km/h 13.0 mph /  20.9 km/h 90 % 0.3 in /  7.62 mm
16:27 3.6 °F /  -15.8 °C 2.1 °F /  -16.6 °C 1007.0 in /  34097 hPa SW 7.9 mph /  12.7 km/h 11.3 mph /  18.2 km/h 90 % 0.3 in /  7.62 mm
16:33 3.6 °F /  -15.8 °C 2.1 °F /  -16.6 °C 1007.0 in /  34097 hPa SW 4.7 mph /  7.6 km/h 9.7 mph /  15.6 km/h 90 % 0.3 in /  7.62 mm
16:39 3.8 °F /  -15.7 °C 2.5 °F /  -16.4 °C 1007.0 in /  34097 hPa SW 4.7 mph /  7.6 km/h 6.4 mph /  10.3 km/h 91 % 0.3 in /  7.62 mm
16:45 3.7 °F /  -15.7 °C 2.2 °F /  -16.6 °C 1007.0 in /  34097 hPa SW 4.7 mph /  7.6 km/h 6.4 mph /  10.3 km/h 90 % 0.3 in /  7.62 mm
16:51 3.8 °F /  -15.7 °C 2.5 °F /  -16.4 °C 1006.7 in /  34086.9 hPa SSE 1.4 mph /  2.3 km/h 4.8 mph /  7.7 km/h 91 % 0.3 in /  7.62 mm
16:57 3.8 °F /  -15.7 °C 2.5 °F /  -16.4 °C 1006.7 in /  34086.9 hPa SSW 3.2 mph /  5.1 km/h 6.4 mph /  10.3 km/h 91 % 0.3 in /  7.62 mm
17:03 3.8 °F /  -15.7 °C 2.5 °F /  -16.4 °C 1006.7 in /  34086.9 hPa SSW 3.2 mph /  5.1 km/h 4.8 mph /  7.7 km/h 91 % 0.3 in /  7.62 mm
17:09 3.8 °F /  -15.7 °C 2.5 °F /  -16.4 °C 1006.7 in /  34086.9 hPa Calm   4.8 mph /  7.7 km/h 91 % 0.3 in /  7.62 mm
17:15 3.7 °F /  -15.7 °C 2.5 °F /  -16.4 °C 1006.7 in /  34086.9 hPa SE 1.4 mph /  2.3 km/h 3.2 mph /  5.1 km/h 92 % 0.0 in /  0 mm
17:21 3.7 °F /  -15.7 °C 2.5 °F /  -16.4 °C 1006.7 in /  34086.9 hPa Calm   3.2 mph /  5.1 km/h 92 % 0.0 in /  0 mm
17:27 3.7 °F /  -15.7 °C 2.5 °F /  -16.4 °C 1006.7 in /  34086.9 hPa Calm     92 % 0.0 in /  0 mm
17:33 3.6 °F /  -15.8 °C 2.4 °F /  -16.4 °C 1006.7 in /  34086.9 hPa Calm   1.6 mph /  2.6 km/h 92 % 0.0 in /  0 mm
17:39 3.6 °F /  -15.8 °C 2.4 °F /  -16.4 °C 1006.3 in /  34073.3 hPa Calm   1.6 mph /  2.6 km/h 92 % 0.0 in /  0 mm
17:45 3.6 °F /  -15.8 °C 2.4 °F /  -16.4 °C 1006.3 in /  34073.3 hPa Calm     92 % 0.0 in /  0 mm
17:51 3.6 °F /  -15.8 °C 2.4 °F /  -16.4 °C 1006.3 in /  34073.3 hPa Calm     92 % 0.0 in /  0 mm
17:57 3.6 °F /  -15.8 °C 2.6 °F /  -16.3 °C 1006.3 in /  34073.3 hPa Calm     93 % 0.0 in /  0 mm
18:04 3.6 °F /  -15.8 °C 2.6 °F /  -16.3 °C 1006.3 in /  34073.3 hPa Calm     93 % 0.0 in /  0 mm
18:10 3.6 °F /  -15.8 °C 2.6 °F /  -16.3 °C 1006.3 in /  34073.3 hPa Calm   1.6 mph /  2.6 km/h 93 % 0.0 in /  0 mm
18:16 3.5 °F /  -15.8 °C 2.5 °F /  -16.4 °C 1006.3 in /  34073.3 hPa Calm   1.6 mph /  2.6 km/h 93 % 0.0 in /  0 mm
18:22 3.6 °F /  -15.8 °C 2.6 °F /  -16.3 °C 1006.3 in /  34073.3 hPa Calm   1.6 mph /  2.6 km/h 93 % 0.0 in /  0 mm
18:28 3.6 °F /  -15.8 °C 2.6 °F /  -16.3 °C 1006.3 in /  34073.3 hPa Calm   1.6 mph /  2.6 km/h 93 % 0.0 in /  0 mm
18:34 3.6 °F /  -15.8 °C 2.6 °F /  -16.3 °C 1006.3 in /  34073.3 hPa Calm   1.6 mph /  2.6 km/h 93 % 0.0 in /  0 mm
18:40 3.6 °F /  -15.8 °C 2.6 °F /  -16.3 °C 1006.3 in /  34073.3 hPa Calm   1.6 mph /  2.6 km/h 93 % 0.0 in /  0 mm
18:46 3.6 °F /  -15.8 °C 2.6 °F /  -16.3 °C 1006.3 in /  34073.3 hPa Calm   1.6 mph /  2.6 km/h 93 % 0.0 in /  0 mm
18:52 3.6 °F /  -15.8 °C 2.6 °F /  -16.3 °C 1006.3 in /  34073.3 hPa Calm     93 % 0.0 in /  0 mm
18:58 3.7 °F /  -15.7 °C 2.7 °F /  -16.3 °C 1006.7 in /  34086.9 hPa SSE 1.4 mph /  2.3 km/h 1.6 mph /  2.6 km/h 93 % 0.3 in /  7.62 mm
19:04 3.7 °F /  -15.7 °C 2.7 °F /  -16.3 °C 1006.7 in /  34086.9 hPa SE 1.4 mph /  2.3 km/h 1.6 mph /  2.6 km/h 93 % 0.3 in /  7.62 mm
19:10 3.6 °F /  -15.8 °C 2.7 °F /  -16.3 °C 1006.3 in /  34073.3 hPa Calm   3.2 mph /  5.1 km/h 94 % 0.3 in /  7.62 mm
19:16 3.6 °F /  -15.8 °C 2.7 °F /  -16.3 °C 1006.3 in /  34073.3 hPa Calm   4.8 mph /  7.7 km/h 94 % 0.3 in /  7.62 mm
19:22 3.6 °F /  -15.8 °C 2.7 °F /  -16.3 °C 1006.7 in /  34086.9 hPa Calm   1.6 mph /  2.6 km/h 94 % 0.3 in /  7.62 mm
19:24 3.6 °F /  -15.8 °C 2.7 °F /  -16.3 °C 1006.7 in /  34086.9 hPa Calm   1.6 mph /  2.6 km/h 94 % 0.3 in /  7.62 mm
19:30 3.6 °F /  -15.8 °C 2.7 °F /  -16.3 °C 1006.7 in /  34086.9 hPa Calm   1.6 mph /  2.6 km/h 94 % 0.3 in /  7.62 mm
19:36 3.6 °F /  -15.8 °C 2.7 °F /  -16.3 °C 1006.7 in /  34086.9 hPa Calm   1.6 mph /  2.6 km/h 94 % 0.3 in /  7.62 mm
19:42 3.6 °F /  -15.8 °C 2.7 °F /  -16.3 °C 1006.7 in /  34086.9 hPa SW 1.4 mph /  2.3 km/h 1.6 mph /  2.6 km/h 94 % 0.3 in /  7.62 mm
19:48 3.6 °F /  -15.8 °C 2.7 °F /  -16.3 °C 1006.7 in /  34086.9 hPa SSW 1.4 mph /  2.3 km/h 1.6 mph /  2.6 km/h 94 % 0.3 in /  7.62 mm
19:54 3.6 °F /  -15.8 °C 2.7 °F /  -16.3 °C 1006.7 in /  34086.9 hPa Calm     94 % 0.3 in /  7.62 mm
20:00 3.6 °F /  -15.8 °C 2.7 °F /  -16.3 °C 1006.7 in /  34086.9 hPa Calm   1.6 mph /  2.6 km/h 94 % 0.0 in /  0 mm
20:06 3.5 °F /  -15.8 °C 2.6 °F /  -16.3 °C 1006.7 in /  34086.9 hPa Calm   3.2 mph /  5.1 km/h 94 % 0.0 in /  0 mm
20:12 3.5 °F /  -15.8 °C 2.6 °F /  -16.3 °C 1006.7 in /  34086.9 hPa Calm   1.6 mph /  2.6 km/h 94 % 0.0 in /  0 mm
20:18 3.5 °F /  -15.8 °C 2.6 °F /  -16.3 °C 1006.7 in /  34086.9 hPa Calm   1.6 mph /  2.6 km/h 94 % 0.0 in /  0 mm
20:24 3.4 °F /  -15.9 °C 2.5 °F /  -16.4 °C 1006.7 in /  34086.9 hPa Calm   3.2 mph /  5.1 km/h 94 % 0.0 in /  0 mm
20:30 3.4 °F /  -15.9 °C 2.4 °F /  -16.4 °C 1006.7 in /  34086.9 hPa Calm   3.2 mph /  5.1 km/h 93 % 0.0 in /  0 mm
20:36 3.4 °F /  -15.9 °C 2.4 °F /  -16.4 °C 1006.7 in /  34086.9 hPa Calm   3.2 mph /  5.1 km/h 93 % 0.0 in /  0 mm
20:42 3.4 °F /  -15.9 °C 2.5 °F /  -16.4 °C 1006.7 in /  34086.9 hPa Calm   1.6 mph /  2.6 km/h 94 % 0.0 in /  0 mm
20:49 3.4 °F /  -15.9 °C 2.5 °F /  -16.4 °C 1006.7 in /  34086.9 hPa Calm   3.2 mph /  5.1 km/h 94 % 0.0 in /  0 mm
20:55 3.3 °F /  -15.9 °C 2.4 °F /  -16.4 °C 1006.7 in /  34086.9 hPa SSE 1.4 mph /  2.3 km/h 3.2 mph /  5.1 km/h 94 % 0.0 in /  0 mm
21:01 3.3 °F /  -15.9 °C 2.4 °F /  -16.4 °C 1006.7 in /  34086.9 hPa Calm   1.6 mph /  2.6 km/h 94 % 0.0 in /  0 mm
21:07 3.3 °F /  -15.9 °C 2.4 °F /  -16.4 °C 1006.7 in /  34086.9 hPa Calm   1.6 mph /  2.6 km/h 94 % 0.0 in /  0 mm
21:13 3.3 °F /  -15.9 °C 2.4 °F /  -16.4 °C 1006.7 in /  34086.9 hPa Calm   1.6 mph /  2.6 km/h 94 % 0.0 in /  0 mm
21:19 3.2 °F /  -16 °C 2.3 °F /  -16.5 °C 1006.7 in /  34086.9 hPa Calm   3.2 mph /  5.1 km/h 94 % 0.0 in /  0 mm
21:25 3.2 °F /  -16 °C 2.5 °F /  -16.4 °C 1006.7 in /  34086.9 hPa Calm   1.6 mph /  2.6 km/h 95 % 0.0 in /  0 mm
21:31 3.2 °F /  -16 °C 2.5 °F /  -16.4 °C 1006.7 in /  34086.9 hPa SE 1.4 mph /  2.3 km/h 3.2 mph /  5.1 km/h 95 % 0.0 in /  0 mm
21:37 3.2 °F /  -16 °C 2.5 °F /  -16.4 °C 1006.7 in /  34086.9 hPa Calm   3.2 mph /  5.1 km/h 95 % 0.0 in /  0 mm
21:43 3.2 °F /  -16 °C 2.5 °F /  -16.4 °C 1006.7 in /  34086.9 hPa SE 4.7 mph /  7.6 km/h 4.8 mph /  7.7 km/h 95 % 0.0 in /  0 mm
21:49 3.2 °F /  -16 °C 2.5 °F /  -16.4 °C 1006.7 in /  34086.9 hPa SE 1.4 mph /  2.3 km/h 4.8 mph /  7.7 km/h 95 % 0.0 in /  0 mm
21:55 3.2 °F /  -16 °C 2.5 °F /  -16.4 °C 1006.7 in /  34086.9 hPa SSE 1.4 mph /  2.3 km/h 4.8 mph /  7.7 km/h 95 % 0.0 in /  0 mm
22:01 3.2 °F /  -16 °C 2.5 °F /  -16.4 °C 1006.7 in /  34086.9 hPa SE 3.2 mph /  5.1 km/h 4.8 mph /  7.7 km/h 95 % 0.0 in /  0 mm
22:07 3.2 °F /  -16 °C 2.5 °F /  -16.4 °C 1007.0 in /  34097 hPa Calm   4.8 mph /  7.7 km/h 95 % 0.0 in /  0 mm
22:13 3.2 °F /  -16 °C 2.5 °F /  -16.4 °C 1007.0 in /  34097 hPa Calm   3.2 mph /  5.1 km/h 95 % 0.0 in /  0 mm
22:19 3.2 °F /  -16 °C 2.5 °F /  -16.4 °C 1007.0 in /  34097 hPa SSE 3.2 mph /  5.1 km/h 3.2 mph /  5.1 km/h 95 % 0.0 in /  0 mm
22:25 3.2 °F /  -16 °C 2.5 °F /  -16.4 °C 1007.0 in /  34097 hPa Calm   1.6 mph /  2.6 km/h 95 % 0.0 in /  0 mm
22:31 3.2 °F /  -16 °C 2.5 °F /  -16.4 °C 1007.0 in /  34097 hPa Calm   3.2 mph /  5.1 km/h 95 % 0.0 in /  0 mm
22:37 3.2 °F /  -16 °C 2.5 °F /  -16.4 °C 1007.0 in /  34097 hPa Calm   1.6 mph /  2.6 km/h 95 % 0.0 in /  0 mm
22:43 3.2 °F /  -16 °C 2.5 °F /  -16.4 °C 1007.0 in /  34097 hPa Calm   6.4 mph /  10.3 km/h 95 % 0.0 in /  0 mm
22:49 3.2 °F /  -16 °C 2.5 °F /  -16.4 °C 1007.0 in /  34097 hPa Calm   4.8 mph /  7.7 km/h 95 % 0.0 in /  0 mm
22:55 3.2 °F /  -16 °C 2.5 °F /  -16.4 °C 1007.3 in /  34107.2 hPa Calm   4.8 mph /  7.7 km/h 95 % 0.0 in /  0 mm
23:01 3.2 °F /  -16 °C 2.5 °F /  -16.4 °C 1007.3 in /  34107.2 hPa SW 6.4 mph /  10.3 km/h 6.4 mph /  10.3 km/h 95 % 0.0 in /  0 mm
23:07 3.2 °F /  -16 °C 2.3 °F /  -16.5 °C 1007.3 in /  34107.2 hPa SSW 4.7 mph /  7.6 km/h 12.9 mph /  20.8 km/h 94 % 0.0 in /  0 mm
23:13 3.2 °F /  -16 °C 2.2 °F /  -16.6 °C 1007.3 in /  34107.2 hPa SSW 13.0 mph /  20.9 km/h 14.5 mph /  23.3 km/h 93 % 0.0 in /  0 mm
23:19 3.2 °F /  -16 °C 2.2 °F /  -16.6 °C 1007.3 in /  34107.2 hPa SSW 6.4 mph /  10.3 km/h 8.0 mph /  12.9 km/h 93 % 0.0 in /  0 mm
23:25 3.1 °F /  -16.1 °C 2.1 °F /  -16.6 °C 1007.3 in /  34107.2 hPa South 4.7 mph /  7.6 km/h 9.7 mph /  15.6 km/h 93 % 0.0 in /  0 mm
23:31 3.1 °F /  -16.1 °C 2.1 °F /  -16.6 °C 1007.3 in /  34107.2 hPa SSW 7.9 mph /  12.7 km/h 11.3 mph /  18.2 km/h 93 % 0.0 in /  0 mm
23:37 3.1 °F /  -16.1 °C 2.2 °F /  -16.6 °C 1007.3 in /  34107.2 hPa SSW 4.7 mph /  7.6 km/h 9.7 mph /  15.6 km/h 94 % 0.0 in /  0 mm
23:43 3.0 °F /  -16.1 °C 2.1 °F /  -16.6 °C 1007.3 in /  34107.2 hPa SSE 3.2 mph /  5.1 km/h 4.8 mph /  7.7 km/h 94 % 0.0 in /  0 mm
23:49 2.9 °F /  -16.2 °C 2.0 °F /  -16.7 °C 1007.3 in /  34107.2 hPa SSW 1.4 mph /  2.3 km/h 8.0 mph /  12.9 km/h 94 % 0.0 in /  0 mm
23:55 2.9 °F /  -16.2 °C 2.0 °F /  -16.7 °C 1007.7 in /  34120.7 hPa SSW 4.7 mph /  7.6 km/h 9.7 mph /  15.6 km/h 94 % 0.0 in /  0 mm
Meteo18
Compliments of Weather Underground - 4 mb

Script developed by  Jim McMurry - jmcmurry@mwt.net Adapted for the template by  Wim van der Kuil - Leuven-Template.eu

You find our weather info also at:

European Weather Network

Weather Underground

Equipment we use:

Weather-station
Davis Vue

Weather-program
Meteobridge

Weather-server
Raspberry PI 2 B+

Provider
1 and 1

Davis Vue

Meteobridge

Raspberry PI 2 B+

1 and 1